sensor_id;sensor_type;location;lat;lon;timestamp;P1;durP1;ratioP1;P2;durP2;ratioP2
15616;SDS011;7908;51.688;7.130;2022-07-23T00:00:21;13.90;;;8.63;;
15616;SDS011;7908;51.688;7.130;2022-07-23T00:02:53;10.40;;;8.67;;
15616;SDS011;7908;51.688;7.130;2022-07-23T00:05:23;16.90;;;10.23;;
15616;SDS011;7908;51.688;7.130;2022-07-23T00:07:57;14.00;;;9.77;;
15616;SDS011;7908;51.688;7.130;2022-07-23T00:10:29;12.67;;;9.47;;
15616;SDS011;7908;51.688;7.130;2022-07-23T00:12:58;15.87;;;9.80;;
15616;SDS011;7908;51.688;7.130;2022-07-23T00:15:31;16.03;;;10.07;;
15616;SDS011;7908;51.688;7.130;2022-07-23T00:18:02;12.17;;;9.50;;
15616;SDS011;7908;51.688;7.130;2022-07-23T00:20:34;12.80;;;10.03;;
15616;SDS011;7908;51.688;7.130;2022-07-23T00:23:06;11.33;;;9.50;;
15616;SDS011;7908;51.688;7.130;2022-07-23T00:25:37;14.53;;;10.97;;
15616;SDS011;7908;51.688;7.130;2022-07-23T00:28:10;17.97;;;11.00;;
15616;SDS011;7908;51.688;7.130;2022-07-23T00:30:43;13.03;;;10.43;;
15616;SDS011;7908;51.688;7.130;2022-07-23T00:33:12;15.27;;;11.40;;
15616;SDS011;7908;51.688;7.130;2022-07-23T00:35:44;15.77;;;12.03;;
15616;SDS011;7908;51.688;7.130;2022-07-23T00:38:16;15.97;;;11.73;;
15616;SDS011;7908;51.688;7.130;2022-07-23T00:40:48;14.03;;;10.57;;
15616;SDS011;7908;51.688;7.130;2022-07-23T00:43:21;15.77;;;12.47;;
15616;SDS011;7908;51.688;7.130;2022-07-23T00:45:51;13.67;;;11.37;;
15616;SDS011;7908;51.688;7.130;2022-07-23T00:48:24;12.50;;;10.87;;
15616;SDS011;7908;51.688;7.130;2022-07-23T00:50:55;16.33;;;12.10;;
15616;SDS011;7908;51.688;7.130;2022-07-23T00:53:26;17.97;;;12.13;;
15616;SDS011;7908;51.688;7.130;2022-07-23T00:55:55;13.03;;;11.13;;
15616;SDS011;7908;51.688;7.130;2022-07-23T00:58:25;15.83;;;12.07;;
15616;SDS011;7908;51.688;7.130;2022-07-23T01:00:55;20.37;;;12.07;;
15616;SDS011;7908;51.688;7.130;2022-07-23T01:03:24;16.43;;;12.23;;
15616;SDS011;7908;51.688;7.130;2022-07-23T01:05:54;19.20;;;12.23;;
15616;SDS011;7908;51.688;7.130;2022-07-23T01:08:23;18.97;;;13.10;;
15616;SDS011;7908;51.688;7.130;2022-07-23T01:10:55;19.43;;;12.53;;
15616;SDS011;7908;51.688;7.130;2022-07-23T01:13:27;16.00;;;12.50;;
15616;SDS011;7908;51.688;7.130;2022-07-23T01:15:56;15.00;;;11.70;;
15616;SDS011;7908;51.688;7.130;2022-07-23T01:18:26;17.23;;;12.00;;
15616;SDS011;7908;51.688;7.130;2022-07-23T01:20:55;17.70;;;11.47;;
15616;SDS011;7908;51.688;7.130;2022-07-23T01:23:29;16.20;;;11.60;;
15616;SDS011;7908;51.688;7.130;2022-07-23T01:25:58;14.50;;;11.57;;
15616;SDS011;7908;51.688;7.130;2022-07-23T01:28:27;14.07;;;11.40;;
15616;SDS011;7908;51.688;7.130;2022-07-23T01:30:55;16.03;;;11.57;;
15616;SDS011;7908;51.688;7.130;2022-07-23T01:33:35;12.93;;;10.73;;
15616;SDS011;7908;51.688;7.130;2022-07-23T01:36:04;12.50;;;10.23;;
15616;SDS011;7908;51.688;7.130;2022-07-23T01:38:38;15.97;;;11.50;;
15616;SDS011;7908;51.688;7.130;2022-07-23T01:41:07;15.67;;;11.70;;
15616;SDS011;7908;51.688;7.130;2022-07-23T01:43:36;12.50;;;10.77;;
15616;SDS011;7908;51.688;7.130;2022-07-23T01:46:06;12.67;;;10.73;;
15616;SDS011;7908;51.688;7.130;2022-07-23T01:48:42;13.83;;;11.33;;
15616;SDS011;7908;51.688;7.130;2022-07-23T01:51:11;15.77;;;10.90;;
15616;SDS011;7908;51.688;7.130;2022-07-23T01:53:44;13.33;;;11.93;;
15616;SDS011;7908;51.688;7.130;2022-07-23T01:56:13;16.40;;;11.13;;
15616;SDS011;7908;51.688;7.130;2022-07-23T01:58:45;14.80;;;11.30;;
15616;SDS011;7908;51.688;7.130;2022-07-23T02:01:14;18.60;;;11.77;;
15616;SDS011;7908;51.688;7.130;2022-07-23T02:03:53;14.17;;;12.10;;
15616;SDS011;7908;51.688;7.130;2022-07-23T02:06:25;15.30;;;12.00;;
15616;SDS011;7908;51.688;7.130;2022-07-23T02:08:56;16.20;;;13.07;;
15616;SDS011;7908;51.688;7.130;2022-07-23T02:11:26;18.07;;;13.33;;
15616;SDS011;7908;51.688;7.130;2022-07-23T02:13:59;16.63;;;12.57;;
15616;SDS011;7908;51.688;7.130;2022-07-23T02:16:37;18.07;;;13.03;;
15616;SDS011;7908;51.688;7.130;2022-07-23T02:19:06;19.70;;;13.90;;
15616;SDS011;7908;51.688;7.130;2022-07-23T02:21:35;18.73;;;14.50;;
15616;SDS011;7908;51.688;7.130;2022-07-23T02:24:17;20.63;;;14.53;;
15616;SDS011;7908;51.688;7.130;2022-07-23T02:26:46;20.63;;;14.27;;
15616;SDS011;7908;51.688;7.130;2022-07-23T02:29:23;15.73;;;13.23;;
15616;SDS011;7908;51.688;7.130;2022-07-23T02:31:58;17.67;;;14.33;;
15616;SDS011;7908;51.688;7.130;2022-07-23T02:34:27;18.00;;;14.03;;
15616;SDS011;7908;51.688;7.130;2022-07-23T02:36:57;17.73;;;14.47;;
15616;SDS011;7908;51.688;7.130;2022-07-23T02:39:31;22.47;;;16.07;;
15616;SDS011;7908;51.688;7.130;2022-07-23T02:42:04;23.83;;;16.27;;
15616;SDS011;7908;51.688;7.130;2022-07-23T02:44:33;18.73;;;14.47;;
15616;SDS011;7908;51.688;7.130;2022-07-23T02:47:04;19.00;;;15.27;;
15616;SDS011;7908;51.688;7.130;2022-07-23T02:49:33;20.17;;;15.47;;
15616;SDS011;7908;51.688;7.130;2022-07-23T02:52:03;26.10;;;16.17;;
15616;SDS011;7908;51.688;7.130;2022-07-23T02:54:35;27.77;;;17.57;;
15616;SDS011;7908;51.688;7.130;2022-07-23T02:57:04;23.07;;;16.83;;
15616;SDS011;7908;51.688;7.130;2022-07-23T02:59:33;20.50;;;15.63;;
15616;SDS011;7908;51.688;7.130;2022-07-23T03:02:06;18.73;;;14.97;;
15616;SDS011;7908;51.688;7.130;2022-07-23T03:04:35;20.27;;;15.57;;
15616;SDS011;7908;51.688;7.130;2022-07-23T03:07:09;27.57;;;17.93;;
15616;SDS011;7908;51.688;7.130;2022-07-23T03:09:46;25.07;;;18.03;;
15616;SDS011;7908;51.688;7.130;2022-07-23T03:12:17;22.73;;;17.07;;
15616;SDS011;7908;51.688;7.130;2022-07-23T03:14:46;23.77;;;17.47;;
15616;SDS011;7908;51.688;7.130;2022-07-23T03:17:17;20.47;;;15.90;;
15616;SDS011;7908;51.688;7.130;2022-07-23T03:19:46;19.70;;;15.77;;
15616;SDS011;7908;51.688;7.130;2022-07-23T03:22:15;24.00;;;16.43;;
15616;SDS011;7908;51.688;7.130;2022-07-23T03:24:44;19.47;;;15.73;;
15616;SDS011;7908;51.688;7.130;2022-07-23T03:27:23;22.43;;;16.87;;
15616;SDS011;7908;51.688;7.130;2022-07-23T03:29:59;22.63;;;16.93;;
15616;SDS011;7908;51.688;7.130;2022-07-23T03:32:29;22.10;;;16.70;;
15616;SDS011;7908;51.688;7.130;2022-07-23T03:35:05;19.33;;;16.33;;
15616;SDS011;7908;51.688;7.130;2022-07-23T03:37:36;22.90;;;17.20;;
15616;SDS011;7908;51.688;7.130;2022-07-23T03:40:08;21.33;;;16.63;;
15616;SDS011;7908;51.688;7.130;2022-07-23T03:42:41;20.67;;;16.47;;
15616;SDS011;7908;51.688;7.130;2022-07-23T03:45:14;24.90;;;18.20;;
15616;SDS011;7908;51.688;7.130;2022-07-23T03:47:44;28.00;;;17.90;;
15616;SDS011;7908;51.688;7.130;2022-07-23T03:50:13;21.27;;;16.80;;
15616;SDS011;7908;51.688;7.130;2022-07-23T03:52:44;21.13;;;17.00;;
15616;SDS011;7908;51.688;7.130;2022-07-23T03:55:14;22.97;;;16.07;;
15616;SDS011;7908;51.688;7.130;2022-07-23T03:57:48;25.33;;;17.93;;
15616;SDS011;7908;51.688;7.130;2022-07-23T04:00:17;24.00;;;16.67;;
15616;SDS011;7908;51.688;7.130;2022-07-23T04:02:47;22.00;;;16.07;;
15616;SDS011;7908;51.688;7.130;2022-07-23T04:05:16;20.10;;;16.10;;
15616;SDS011;7908;51.688;7.130;2022-07-23T04:07:48;20.23;;;16.47;;
15616;SDS011;7908;51.688;7.130;2022-07-23T04:10:17;22.37;;;16.60;;
15616;SDS011;7908;51.688;7.130;2022-07-23T04:12:46;22.77;;;16.50;;
15616;SDS011;7908;51.688;7.130;2022-07-23T04:15:19;22.37;;;16.40;;
15616;SDS011;7908;51.688;7.130;2022-07-23T04:17:50;26.20;;;17.30;;
15616;SDS011;7908;51.688;7.130;2022-07-23T04:20:19;37.23;;;17.40;;
15616;SDS011;7908;51.688;7.130;2022-07-23T04:22:48;31.67;;;17.23;;
15616;SDS011;7908;51.688;7.130;2022-07-23T04:25:17;23.77;;;16.83;;
15616;SDS011;7908;51.688;7.130;2022-07-23T04:27:59;28.90;;;18.03;;
15616;SDS011;7908;51.688;7.130;2022-07-23T04:30:33;23.70;;;17.40;;
15616;SDS011;7908;51.688;7.130;2022-07-23T04:33:03;29.53;;;18.83;;
15616;SDS011;7908;51.688;7.130;2022-07-23T04:35:45;30.00;;;18.63;;
15616;SDS011;7908;51.688;7.130;2022-07-23T04:38:19;20.43;;;16.83;;
15616;SDS011;7908;51.688;7.130;2022-07-23T04:40:49;23.70;;;17.37;;
15616;SDS011;7908;51.688;7.130;2022-07-23T04:43:20;21.50;;;16.77;;
15616;SDS011;7908;51.688;7.130;2022-07-23T04:46:09;22.87;;;17.47;;
15616;SDS011;7908;51.688;7.130;2022-07-23T04:48:38;21.50;;;17.40;;
15616;SDS011;7908;51.688;7.130;2022-07-23T04:51:09;23.77;;;18.10;;
15616;SDS011;7908;51.688;7.130;2022-07-23T04:53:38;21.30;;;17.20;;
15616;SDS011;7908;51.688;7.130;2022-07-23T04:56:07;18.20;;;16.23;;
15616;SDS011;7908;51.688;7.130;2022-07-23T04:58:39;20.00;;;15.90;;
15616;SDS011;7908;51.688;7.130;2022-07-23T05:01:15;24.20;;;15.17;;
15616;SDS011;7908;51.688;7.130;2022-07-23T05:03:48;20.43;;;15.33;;
15616;SDS011;7908;51.688;7.130;2022-07-23T05:06:17;16.17;;;13.67;;
15616;SDS011;7908;51.688;7.130;2022-07-23T05:08:45;16.60;;;13.57;;
15616;SDS011;7908;51.688;7.130;2022-07-23T05:11:16;14.63;;;13.20;;
15616;SDS011;7908;51.688;7.130;2022-07-23T05:13:52;15.47;;;12.87;;
15616;SDS011;7908;51.688;7.130;2022-07-23T05:16:22;13.03;;;11.80;;
15616;SDS011;7908;51.688;7.130;2022-07-23T05:18:51;12.80;;;11.60;;
15616;SDS011;7908;51.688;7.130;2022-07-23T05:21:21;12.93;;;11.57;;
15616;SDS011;7908;51.688;7.130;2022-07-23T05:23:53;13.33;;;11.73;;
15616;SDS011;7908;51.688;7.130;2022-07-23T05:26:21;11.93;;;10.73;;
15616;SDS011;7908;51.688;7.130;2022-07-23T05:29:04;13.27;;;11.83;;
15616;SDS011;7908;51.688;7.130;2022-07-23T05:31:35;15.40;;;11.97;;
15616;SDS011;7908;51.688;7.130;2022-07-23T05:34:04;13.23;;;11.90;;
15616;SDS011;7908;51.688;7.130;2022-07-23T05:39:22;15.37;;;11.70;;
15616;SDS011;7908;51.688;7.130;2022-07-23T05:41:52;14.80;;;11.50;;
15616;SDS011;7908;51.688;7.130;2022-07-23T05:44:22;15.17;;;13.67;;
15616;SDS011;7908;51.688;7.130;2022-07-23T05:46:52;13.60;;;12.33;;
15616;SDS011;7908;51.688;7.130;2022-07-23T05:49:24;14.10;;;12.17;;
15616;SDS011;7908;51.688;7.130;2022-07-23T05:51:57;15.67;;;12.77;;
15616;SDS011;7908;51.688;7.130;2022-07-23T05:54:26;14.20;;;12.20;;
15616;SDS011;7908;51.688;7.130;2022-07-23T05:56:57;12.63;;;11.33;;
15616;SDS011;7908;51.688;7.130;2022-07-23T05:59:31;13.00;;;11.63;;
15616;SDS011;7908;51.688;7.130;2022-07-23T06:02:02;13.83;;;11.60;;
15616;SDS011;7908;51.688;7.130;2022-07-23T06:04:31;17.60;;;12.43;;
15616;SDS011;7908;51.688;7.130;2022-07-23T06:07:00;13.70;;;12.30;;
15616;SDS011;7908;51.688;7.130;2022-07-23T06:09:37;13.90;;;11.83;;
15616;SDS011;7908;51.688;7.130;2022-07-23T06:12:08;13.17;;;11.97;;
15616;SDS011;7908;51.688;7.130;2022-07-23T06:14:37;14.60;;;13.10;;
15616;SDS011;7908;51.688;7.130;2022-07-23T06:17:09;12.53;;;11.37;;
15616;SDS011;7908;51.688;7.130;2022-07-23T06:19:52;13.30;;;11.63;;
15616;SDS011;7908;51.688;7.130;2022-07-23T06:22:21;14.83;;;11.97;;
15616;SDS011;7908;51.688;7.130;2022-07-23T06:25:00;12.83;;;11.53;;
15616;SDS011;7908;51.688;7.130;2022-07-23T06:27:45;16.07;;;12.10;;
15616;SDS011;7908;51.688;7.130;2022-07-23T06:30:20;11.67;;;10.47;;
15616;SDS011;7908;51.688;7.130;2022-07-23T06:32:52;13.03;;;10.50;;
15616;SDS011;7908;51.688;7.130;2022-07-23T06:35:21;12.80;;;10.13;;
15616;SDS011;7908;51.688;7.130;2022-07-23T06:37:52;13.07;;;10.53;;
15616;SDS011;7908;51.688;7.130;2022-07-23T06:40:21;13.70;;;11.10;;
15616;SDS011;7908;51.688;7.130;2022-07-23T06:42:53;14.30;;;10.97;;
15616;SDS011;7908;51.688;7.130;2022-07-23T06:45:21;11.53;;;10.33;;
15616;SDS011;7908;51.688;7.130;2022-07-23T06:47:50;15.03;;;12.23;;
15616;SDS011;7908;51.688;7.130;2022-07-23T06:50:24;11.03;;;9.93;;
15616;SDS011;7908;51.688;7.130;2022-07-23T06:52:57;12.70;;;9.57;;
15616;SDS011;7908;51.688;7.130;2022-07-23T06:55:29;10.53;;;9.50;;
15616;SDS011;7908;51.688;7.130;2022-07-23T06:58:07;11.33;;;9.27;;
15616;SDS011;7908;51.688;7.130;2022-07-23T07:00:36;10.40;;;8.60;;
15616;SDS011;7908;51.688;7.130;2022-07-23T07:03:13;10.50;;;7.83;;
15616;SDS011;7908;51.688;7.130;2022-07-23T07:05:45;9.43;;;7.67;;
15616;SDS011;7908;51.688;7.130;2022-07-23T07:08:19;9.27;;;7.80;;
15616;SDS011;7908;51.688;7.130;2022-07-23T07:10:49;12.47;;;7.87;;
15616;SDS011;7908;51.688;7.130;2022-07-23T07:13:22;8.23;;;7.43;;
15616;SDS011;7908;51.688;7.130;2022-07-23T07:15:51;8.32;;;6.90;;
15616;SDS011;7908;51.688;7.130;2022-07-23T07:18:24;8.20;;;6.80;;
15616;SDS011;7908;51.688;7.130;2022-07-23T07:20:54;7.07;;;6.30;;
15616;SDS011;7908;51.688;7.130;2022-07-23T07:23:24;9.63;;;6.40;;
15616;SDS011;7908;51.688;7.130;2022-07-23T07:25:57;8.02;;;6.20;;
15616;SDS011;7908;51.688;7.130;2022-07-23T07:28:31;8.38;;;6.50;;
15616;SDS011;7908;51.688;7.130;2022-07-23T07:31:03;12.10;;;5.40;;
15616;SDS011;7908;51.688;7.130;2022-07-23T07:33:40;5.63;;;4.72;;
15616;SDS011;7908;51.688;7.130;2022-07-23T07:36:17;7.77;;;4.83;;
15616;SDS011;7908;51.688;7.130;2022-07-23T07:38:47;6.00;;;4.37;;
15616;SDS011;7908;51.688;7.130;2022-07-23T07:41:16;6.88;;;4.30;;
15616;SDS011;7908;51.688;7.130;2022-07-23T07:43:53;5.55;;;4.10;;
15616;SDS011;7908;51.688;7.130;2022-07-23T07:46:27;5.65;;;4.40;;
15616;SDS011;7908;51.688;7.130;2022-07-23T07:49:00;7.05;;;4.25;;
15616;SDS011;7908;51.688;7.130;2022-07-23T07:51:31;8.80;;;4.35;;
15616;SDS011;7908;51.688;7.130;2022-07-23T07:54:05;6.53;;;4.50;;
15616;SDS011;7908;51.688;7.130;2022-07-23T07:56:34;5.32;;;3.65;;
15616;SDS011;7908;51.688;7.130;2022-07-23T07:59:06;4.53;;;3.60;;
15616;SDS011;7908;51.688;7.130;2022-07-23T08:01:37;5.57;;;4.30;;
15616;SDS011;7908;51.688;7.130;2022-07-23T08:04:17;5.03;;;3.90;;
15616;SDS011;7908;51.688;7.130;2022-07-23T08:06:58;10.25;;;4.53;;
15616;SDS011;7908;51.688;7.130;2022-07-23T08:09:37;6.60;;;4.10;;
15616;SDS011;7908;51.688;7.130;2022-07-23T08:12:08;7.07;;;4.50;;
15616;SDS011;7908;51.688;7.130;2022-07-23T08:14:45;4.45;;;4.00;;
15616;SDS011;7908;51.688;7.130;2022-07-23T08:17:14;6.73;;;3.80;;
15616;SDS011;7908;51.688;7.130;2022-07-23T08:19:50;4.63;;;3.50;;
15616;SDS011;7908;51.688;7.130;2022-07-23T08:22:40;4.65;;;3.22;;
15616;SDS011;7908;51.688;7.130;2022-07-23T08:25:12;5.95;;;3.13;;
15616;SDS011;7908;51.688;7.130;2022-07-23T08:27:42;8.43;;;3.53;;
15616;SDS011;7908;51.688;7.130;2022-07-23T08:30:13;4.57;;;3.25;;
15616;SDS011;7908;51.688;7.130;2022-07-23T08:32:55;7.15;;;3.88;;
15616;SDS011;7908;51.688;7.130;2022-07-23T08:35:36;5.63;;;4.07;;
15616;SDS011;7908;51.688;7.130;2022-07-23T08:38:12;5.25;;;3.60;;
15616;SDS011;7908;51.688;7.130;2022-07-23T08:41:05;4.15;;;3.08;;
15616;SDS011;7908;51.688;7.130;2022-07-23T08:43:37;6.10;;;3.22;;
15616;SDS011;7908;51.688;7.130;2022-07-23T08:46:14;3.80;;;2.85;;
15616;SDS011;7908;51.688;7.130;2022-07-23T08:48:50;4.05;;;2.80;;
15616;SDS011;7908;51.688;7.130;2022-07-23T08:51:30;4.65;;;3.25;;
15616;SDS011;7908;51.688;7.130;2022-07-23T08:54:11;6.38;;;3.47;;
15616;SDS011;7908;51.688;7.130;2022-07-23T08:56:41;4.75;;;3.70;;
15616;SDS011;7908;51.688;7.130;2022-07-23T08:59:10;3.45;;;3.10;;
15616;SDS011;7908;51.688;7.130;2022-07-23T09:01:46;5.45;;;3.45;;
15616;SDS011;7908;51.688;7.130;2022-07-23T09:04:21;6.13;;;2.90;;
15616;SDS011;7908;51.688;7.130;2022-07-23T09:06:58;3.60;;;2.67;;
15616;SDS011;7908;51.688;7.130;2022-07-23T09:09:31;4.45;;;2.95;;
15616;SDS011;7908;51.688;7.130;2022-07-23T09:12:04;5.05;;;2.72;;
15616;SDS011;7908;51.688;7.130;2022-07-23T09:14:38;5.05;;;2.80;;
15616;SDS011;7908;51.688;7.130;2022-07-23T09:17:28;4.25;;;2.83;;
15616;SDS011;7908;51.688;7.130;2022-07-23T09:20:17;4.55;;;2.78;;
15616;SDS011;7908;51.688;7.130;2022-07-23T09:22:54;3.08;;;2.50;;
15616;SDS011;7908;51.688;7.130;2022-07-23T09:25:43;4.72;;;3.08;;
15616;SDS011;7908;51.688;7.130;2022-07-23T09:28:26;4.03;;;2.63;;
15616;SDS011;7908;51.688;7.130;2022-07-23T09:30:58;4.57;;;2.78;;
15616;SDS011;7908;51.688;7.130;2022-07-23T09:34:01;2.92;;;2.45;;
15616;SDS011;7908;51.688;7.130;2022-07-23T09:37:08;3.30;;;2.28;;
15616;SDS011;7908;51.688;7.130;2022-07-23T09:40:14;4.50;;;2.50;;
15616;SDS011;7908;51.688;7.130;2022-07-23T09:42:55;5.20;;;2.78;;
15616;SDS011;7908;51.688;7.130;2022-07-23T09:45:27;3.30;;;2.60;;
15616;SDS011;7908;51.688;7.130;2022-07-23T09:51:02;2.95;;;2.08;;
15616;SDS011;7908;51.688;7.130;2022-07-23T09:53:37;3.40;;;2.50;;
15616;SDS011;7908;51.688;7.130;2022-07-23T09:56:12;3.65;;;2.50;;
15616;SDS011;7908;51.688;7.130;2022-07-23T09:58:56;3.72;;;2.38;;
15616;SDS011;7908;51.688;7.130;2022-07-23T10:01:33;1.85;;;1.70;;
15616;SDS011;7908;51.688;7.130;2022-07-23T10:04:10;3.13;;;1.80;;
15616;SDS011;7908;51.688;7.130;2022-07-23T10:06:46;2.90;;;2.50;;
15616;SDS011;7908;51.688;7.130;2022-07-23T10:09:25;3.60;;;2.50;;
15616;SDS011;7908;51.688;7.130;2022-07-23T10:12:11;4.97;;;3.17;;
15616;SDS011;7908;51.688;7.130;2022-07-23T10:14:58;2.38;;;1.75;;
15616;SDS011;7908;51.688;7.130;2022-07-23T10:17:37;4.28;;;2.03;;
15616;SDS011;7908;51.688;7.130;2022-07-23T10:20:09;3.15;;;1.63;;
15616;SDS011;7908;51.688;7.130;2022-07-23T10:22:40;2.53;;;1.52;;
15616;SDS011;7908;51.688;7.130;2022-07-23T10:25:18;2.10;;;1.40;;
15616;SDS011;7908;51.688;7.130;2022-07-23T10:28:02;3.90;;;1.60;;
15616;SDS011;7908;51.688;7.130;2022-07-23T10:30:43;3.78;;;2.20;;
15616;SDS011;7908;51.688;7.130;2022-07-23T10:33:29;2.20;;;1.83;;
15616;SDS011;7908;51.688;7.130;2022-07-23T10:36:16;4.60;;;2.08;;
15616;SDS011;7908;51.688;7.130;2022-07-23T10:38:58;3.47;;;1.90;;
15616;SDS011;7908;51.688;7.130;2022-07-23T10:41:43;3.17;;;2.00;;
15616;SDS011;7908;51.688;7.130;2022-07-23T10:44:32;4.05;;;1.98;;
15616;SDS011;7908;51.688;7.130;2022-07-23T10:47:21;2.40;;;1.70;;
15616;SDS011;7908;51.688;7.130;2022-07-23T10:50:22;3.83;;;1.80;;
15616;SDS011;7908;51.688;7.130;2022-07-23T10:53:16;3.08;;;1.77;;
15616;SDS011;7908;51.688;7.130;2022-07-23T10:55:50;2.20;;;1.75;;
15616;SDS011;7908;51.688;7.130;2022-07-23T10:58:25;4.22;;;1.95;;
15616;SDS011;7908;51.688;7.130;2022-07-23T11:01:32;2.25;;;2.05;;
15616;SDS011;7908;51.688;7.130;2022-07-23T11:04:10;3.28;;;2.38;;
15616;SDS011;7908;51.688;7.130;2022-07-23T11:09:47;5.53;;;2.17;;
15616;SDS011;7908;51.688;7.130;2022-07-23T11:12:33;5.60;;;1.85;;
15616;SDS011;7908;51.688;7.130;2022-07-23T11:15:07;2.45;;;1.40;;
15616;SDS011;7908;51.688;7.130;2022-07-23T11:20:45;2.78;;;1.55;;
15616;SDS011;7908;51.688;7.130;2022-07-23T11:23:16;2.45;;;1.63;;
15616;SDS011;7908;51.688;7.130;2022-07-23T11:25:45;3.05;;;1.60;;
15616;SDS011;7908;51.688;7.130;2022-07-23T11:28:15;2.38;;;1.35;;
15616;SDS011;7908;51.688;7.130;2022-07-23T11:30:52;2.08;;;1.40;;
15616;SDS011;7908;51.688;7.130;2022-07-23T11:33:22;2.55;;;1.58;;
15616;SDS011;7908;51.688;7.130;2022-07-23T11:36:02;3.10;;;1.77;;
15616;SDS011;7908;51.688;7.130;2022-07-23T11:38:32;2.88;;;2.22;;
15616;SDS011;7908;51.688;7.130;2022-07-23T11:41:11;4.25;;;1.77;;
15616;SDS011;7908;51.688;7.130;2022-07-23T11:43:44;3.35;;;1.80;;
15616;SDS011;7908;51.688;7.130;2022-07-23T11:46:19;2.35;;;1.38;;
15616;SDS011;7908;51.688;7.130;2022-07-23T11:49:00;2.53;;;1.55;;
15616;SDS011;7908;51.688;7.130;2022-07-23T11:51:35;1.98;;;1.58;;
15616;SDS011;7908;51.688;7.130;2022-07-23T11:54:14;3.05;;;1.23;;
15616;SDS011;7908;51.688;7.130;2022-07-23T11:56:56;4.22;;;1.80;;
15616;SDS011;7908;51.688;7.130;2022-07-23T11:59:31;3.05;;;1.70;;
15616;SDS011;7908;51.688;7.130;2022-07-23T12:02:02;3.15;;;1.58;;
15616;SDS011;7908;51.688;7.130;2022-07-23T12:04:41;7.90;;;2.00;;
15616;SDS011;7908;51.688;7.130;2022-07-23T12:07:26;1.88;;;1.20;;
15616;SDS011;7908;51.688;7.130;2022-07-23T12:10:08;2.45;;;1.63;;
15616;SDS011;7908;51.688;7.130;2022-07-23T12:12:51;2.58;;;1.50;;
15616;SDS011;7908;51.688;7.130;2022-07-23T12:15:23;2.50;;;1.40;;
15616;SDS011;7908;51.688;7.130;2022-07-23T12:18:01;4.25;;;1.55;;
15616;SDS011;7908;51.688;7.130;2022-07-23T12:20:43;2.13;;;1.45;;
15616;SDS011;7908;51.688;7.130;2022-07-23T12:23:20;2.83;;;2.10;;
15616;SDS011;7908;51.688;7.130;2022-07-23T12:25:52;2.28;;;1.70;;
15616;SDS011;7908;51.688;7.130;2022-07-23T12:28:27;2.13;;;1.58;;
15616;SDS011;7908;51.688;7.130;2022-07-23T12:31:08;2.50;;;1.75;;
15616;SDS011;7908;51.688;7.130;2022-07-23T12:33:44;2.03;;;1.40;;
15616;SDS011;7908;51.688;7.130;2022-07-23T12:36:19;3.60;;;1.83;;
15616;SDS011;7908;51.688;7.130;2022-07-23T12:39:08;1.40;;;1.27;;
15616;SDS011;7908;51.688;7.130;2022-07-23T12:41:51;2.38;;;1.48;;
15616;SDS011;7908;51.688;7.130;2022-07-23T12:44:21;2.45;;;2.00;;
15616;SDS011;7908;51.688;7.130;2022-07-23T12:46:53;2.30;;;2.10;;
15616;SDS011;7908;51.688;7.130;2022-07-23T12:49:26;3.90;;;1.88;;
15616;SDS011;7908;51.688;7.130;2022-07-23T12:52:01;2.42;;;1.60;;
15616;SDS011;7908;51.688;7.130;2022-07-23T12:54:47;2.05;;;1.60;;
15616;SDS011;7908;51.688;7.130;2022-07-23T12:57:18;2.00;;;1.70;;
15616;SDS011;7908;51.688;7.130;2022-07-23T13:00:20;2.45;;;1.50;;
15616;SDS011;7908;51.688;7.130;2022-07-23T13:02:52;4.00;;;2.00;;
15616;SDS011;7908;51.688;7.130;2022-07-23T13:05:24;3.28;;;1.60;;
15616;SDS011;7908;51.688;7.130;2022-07-23T13:07:56;2.53;;;1.70;;
15616;SDS011;7908;51.688;7.130;2022-07-23T13:10:35;1.95;;;1.40;;
15616;SDS011;7908;51.688;7.130;2022-07-23T13:13:13;2.38;;;1.70;;
15616;SDS011;7908;51.688;7.130;2022-07-23T13:15:49;2.75;;;1.80;;
15616;SDS011;7908;51.688;7.130;2022-07-23T13:18:22;2.58;;;1.70;;
15616;SDS011;7908;51.688;7.130;2022-07-23T13:20:54;2.63;;;1.60;;
15616;SDS011;7908;51.688;7.130;2022-07-23T13:23:31;2.30;;;1.75;;
15616;SDS011;7908;51.688;7.130;2022-07-23T13:26:02;2.28;;;1.80;;
15616;SDS011;7908;51.688;7.130;2022-07-23T13:28:32;2.05;;;1.55;;
15616;SDS011;7908;51.688;7.130;2022-07-23T13:31:18;2.80;;;1.75;;
15616;SDS011;7908;51.688;7.130;2022-07-23T13:34:09;3.08;;;1.80;;
15616;SDS011;7908;51.688;7.130;2022-07-23T13:36:41;1.45;;;1.35;;
15616;SDS011;7908;51.688;7.130;2022-07-23T13:39:17;3.13;;;2.03;;
15616;SDS011;7908;51.688;7.130;2022-07-23T13:41:46;3.30;;;1.70;;
15616;SDS011;7908;51.688;7.130;2022-07-23T13:44:16;4.57;;;1.77;;
15616;SDS011;7908;51.688;7.130;2022-07-23T13:46:48;2.35;;;1.60;;
15616;SDS011;7908;51.688;7.130;2022-07-23T13:49:18;4.00;;;1.80;;
15616;SDS011;7908;51.688;7.130;2022-07-23T13:51:52;3.00;;;1.77;;
15616;SDS011;7908;51.688;7.130;2022-07-23T13:54:35;2.55;;;1.80;;
15616;SDS011;7908;51.688;7.130;2022-07-23T13:57:04;3.38;;;2.00;;
15616;SDS011;7908;51.688;7.130;2022-07-23T13:59:37;3.58;;;2.60;;
15616;SDS011;7908;51.688;7.130;2022-07-23T14:02:11;2.13;;;1.67;;
15616;SDS011;7908;51.688;7.130;2022-07-23T14:04:47;5.18;;;1.83;;
15616;SDS011;7908;51.688;7.130;2022-07-23T14:07:29;3.38;;;2.20;;
15616;SDS011;7908;51.688;7.130;2022-07-23T14:10:13;4.30;;;1.83;;
15616;SDS011;7908;51.688;7.130;2022-07-23T14:12:43;3.25;;;1.75;;
15616;SDS011;7908;51.688;7.130;2022-07-23T14:15:14;1.88;;;1.70;;
15616;SDS011;7908;51.688;7.130;2022-07-23T14:17:46;2.00;;;1.80;;
15616;SDS011;7908;51.688;7.130;2022-07-23T14:20:16;2.20;;;1.42;;
15616;SDS011;7908;51.688;7.130;2022-07-23T14:22:50;5.18;;;1.73;;
15616;SDS011;7908;51.688;7.130;2022-07-23T14:25:48;2.38;;;1.60;;
15616;SDS011;7908;51.688;7.130;2022-07-23T14:28:25;2.97;;;1.88;;
15616;SDS011;7908;51.688;7.130;2022-07-23T14:30:56;2.10;;;1.80;;
15616;SDS011;7908;51.688;7.130;2022-07-23T14:33:27;3.47;;;1.80;;
15616;SDS011;7908;51.688;7.130;2022-07-23T14:35:57;2.75;;;1.90;;
15616;SDS011;7908;51.688;7.130;2022-07-23T14:38:28;1.70;;;1.60;;
15616;SDS011;7908;51.688;7.130;2022-07-23T14:41:06;2.60;;;2.10;;
15616;SDS011;7908;51.688;7.130;2022-07-23T14:43:39;3.30;;;2.55;;
15616;SDS011;7908;51.688;7.130;2022-07-23T14:46:11;2.80;;;2.10;;
15616;SDS011;7908;51.688;7.130;2022-07-23T14:48:44;2.97;;;1.83;;
15616;SDS011;7908;51.688;7.130;2022-07-23T14:51:18;3.17;;;2.20;;
15616;SDS011;7908;51.688;7.130;2022-07-23T14:54:01;3.03;;;1.90;;
15616;SDS011;7908;51.688;7.130;2022-07-23T14:56:38;4.80;;;1.90;;
15616;SDS011;7908;51.688;7.130;2022-07-23T14:59:13;2.65;;;2.13;;
15616;SDS011;7908;51.688;7.130;2022-07-23T15:01:42;2.65;;;2.08;;
15616;SDS011;7908;51.688;7.130;2022-07-23T15:04:14;2.58;;;1.73;;
15616;SDS011;7908;51.688;7.130;2022-07-23T15:07:02;2.20;;;2.00;;
15616;SDS011;7908;51.688;7.130;2022-07-23T15:09:37;3.55;;;2.10;;
15616;SDS011;7908;51.688;7.130;2022-07-23T15:12:12;2.50;;;1.80;;
15616;SDS011;7908;51.688;7.130;2022-07-23T15:14:46;4.43;;;2.15;;
15616;SDS011;7908;51.688;7.130;2022-07-23T15:17:15;3.80;;;1.88;;
15616;SDS011;7908;51.688;7.130;2022-07-23T15:19:47;2.13;;;1.90;;
15616;SDS011;7908;51.688;7.130;2022-07-23T15:22:17;2.97;;;1.80;;
15616;SDS011;7908;51.688;7.130;2022-07-23T15:25:07;3.17;;;1.90;;
15616;SDS011;7908;51.688;7.130;2022-07-23T15:27:44;2.47;;;1.90;;
15616;SDS011;7908;51.688;7.130;2022-07-23T15:30:16;1.83;;;1.55;;
15616;SDS011;7908;51.688;7.130;2022-07-23T15:32:45;4.38;;;1.85;;
15616;SDS011;7908;51.688;7.130;2022-07-23T15:35:21;3.75;;;2.30;;
15616;SDS011;7908;51.688;7.130;2022-07-23T15:37:51;2.55;;;2.10;;
15616;SDS011;7908;51.688;7.130;2022-07-23T15:40:25;4.05;;;2.40;;
15616;SDS011;7908;51.688;7.130;2022-07-23T15:43:01;3.65;;;2.15;;